Latest Weather Observations for Darwin Airport

IDD60801

Issued at 5:01 pm CST Friday 4 September 2015 (issued every 30 minutes, with the page automatically refreshed every 10 minutes)

About weather observations | Map of weather stations | Latest weather observations for NT | Other Formats
Station Details ID: 014015 Name: DARWIN AIRPORT Lat: -12.42 Lon: 130.89 Height: 30.4 m
Data from the previous 72 hours. | See also: Recent months at Darwin Airport
Date/Time
CST
Temp
°C
App
Temp
°C
Dew
Point
Rel
Hum
%
Delta-T
°C
Wind Press
QNH
hPa
Press
MSL
hPa
Rain
since 9 am
mm
Dir
 
Spd
km/h
Gust
km/h
Spd
kts
Gust
kts
04/04:30pm 30.9 29.1 17.8 45 8.4 N 24 30 13 16 1012.9 - 0.0
04/04:00pm 31.8 29.5 18.5 45 8.6 N 28 33 15 18 1013.0 - 0.0
04/03:30pm 31.0 30.1 19.0 48 7.8 N 22 30 12 16 1013.2 - 0.0
04/03:00pm 30.9 30.0 20.7 54 6.8 N 26 32 14 17 1013.5 1013.2 0.0
04/02:30pm 31.5 31.3 20.5 52 7.3 NNW 22 28 12 15 1013.8 - 0.0
04/02:00pm 30.9 30.6 20.3 53 7.0 NW 22 35 12 19 1014.4 - 0.0
04/01:30pm 30.6 30.6 20.9 56 6.5 NW 22 26 12 14 1014.9 - 0.0
04/01:00pm 31.7 30.4 19.9 49 7.8 WNW 26 32 14 17 1015.2 - 0.0
04/12:30pm 32.1 32.9 17.4 41 9.4 ESE 9 19 5 10 1015.8 - 0.0
04/12:00pm 30.3 31.6 18.5 49 7.6 NE 9 19 5 10 1016.4 1016.1 0.0
04/11:30am 30.2 30.8 18.6 49 7.5 ENE 13 17 7 9 1017.0 - 0.0
04/11:00am 29.7 30.9 19.8 55 6.5 ENE 13 17 7 9 1017.3 - 0.0
04/10:30am 29.0 30.3 20.2 59 5.8 NNE 13 17 7 9 1017.7 - 0.0
04/10:00am 28.6 29.2 20.2 60 5.5 NE 17 26 9 14 1017.8 - 0.0
04/09:30am 28.2 28.4 19.4 59 5.7 NNE 17 20 9 11 1017.7 - 0.0
04/09:00am 27.5 28.4 20.0 63 4.9 NE 15 19 8 10 1017.5 - 0.0
04/08:30am 26.8 28.1 20.2 67 4.3 NE 13 17 7 9 1017.3 - 0.0
04/08:21am 26.3 27.9 20.7 71 3.7 NE 13 17 7 9 1017.2 - 0.0
04/08:00am 25.3 27.3 20.7 75 3.0 ENE 11 15 6 8 1017.1 - 0.0
04/07:30am 23.6 25.6 20.0 80 2.3 ENE 9 13 5 7 1016.7 - 0.0
04/07:00am 22.2 23.5 19.4 84 1.8 NE 11 15 6 8 1016.3 - 0.0
04/06:30am 22.4 24.0 19.1 81 2.1 ENE 9 11 5 6 1016.1 - 0.0
04/06:00am 22.9 23.8 19.3 80 2.3 ENE 13 15 7 8 1015.8 1015.5 0.0
04/05:30am 23.1 24.0 19.3 79 2.4 NE 13 17 7 9 1015.6 - 0.0
04/05:00am 23.4 23.7 19.5 79 2.5 NE 17 19 9 10 1015.4 - 0.0
04/04:49am 23.5 24.2 19.6 79 2.5 NE 15 19 8 10 1015.3 - 0.0
04/04:30am 23.3 24.7 20.4 84 1.9 NE 13 15 7 8 1015.2 - 0.0
04/04:00am 22.7 25.0 20.7 88 1.3 N 9 11 5 6 1015.0 - 0.0
04/03:30am 23.0 26.1 21.5 91 1.0 N 7 9 4 5 1015.0 - 0.0
04/03:00am 23.4 26.1 21.4 88 1.3 N 9 11 5 6 1015.0 1014.7 0.0
04/02:30am 23.5 26.4 21.7 90 1.2 N 9 11 5 6 1015.2 - 0.0
04/02:00am 23.3 26.6 21.8 91 1.0 N 7 9 4 5 1015.5 - 0.0
04/01:30am 23.8 27.4 22.3 91 1.0 N 7 7 4 4 1015.7 - 0.0
04/01:00am 24.1 27.5 22.0 88 1.4 N 7 9 4 5 1016.0 - 0.0
04/12:30am 24.5 28.1 22.3 87 1.5 N 7 9 4 5 1016.1 - 0.0
04/12:00am 25.2 28.6 22.7 86 1.7 NNW 9 11 5 6 1016.3 1016.0 0.0
 
Date/Time
CST
Temp
°C
App
Temp
°C
Dew
Point
Rel
Hum
%
Delta-T
°C
Wind Press
QNH
hPa
Press
MSL
hPa
Rain
since 9 am
mm
Dir
 
Spd
km/h
Gust
km/h
Spd
kts
Gust
kts
03/11:30pm 26.2 29.3 22.8 81 2.3 WNW 11 13 6 7 1016.2 - 0.0
03/11:00pm 26.2 28.7 22.5 80 2.5 WNW 13 17 7 9 1015.9 - 0.0
03/10:30pm 26.3 28.4 22.4 79 2.6 WNW 15 17 8 9 1015.8 - 0.0
03/10:00pm 26.5 28.5 22.3 78 2.8 WNW 15 19 8 10 1015.6 - 0.0
03/09:30pm 26.6 28.9 22.1 76 3.0 WNW 13 19 7 10 1015.6 - 0.0
03/09:00pm 26.7 28.5 21.9 75 3.2 WNW 15 19 8 10 1015.3 1015.0 0.0
03/08:30pm 26.9 28.5 21.5 72 3.6 WNW 15 17 8 9 1015.0 - 0.0
03/08:00pm 27.3 28.6 20.8 67 4.3 WNW 15 17 8 9 1014.8 - 0.0
03/07:30pm 27.7 28.3 19.4 60 5.4 WNW 15 19 8 10 1014.5 - 0.0
03/07:00pm 27.8 28.2 19.8 61 5.2 NW 17 22 9 12 1014.2 - 0.0
03/06:30pm 28.4 28.3 19.5 58 5.8 NW 19 24 10 13 1013.8 - 0.0
03/06:00pm 29.1 28.8 19.1 54 6.5 NW 19 20 10 11 1013.5 1013.2 0.0
03/05:30pm 29.7 28.7 17.6 48 7.7 WNW 19 24 10 13 1013.4 - 0.0
03/05:00pm 30.3 28.8 16.8 44 8.5 WNW 20 26 11 14 1013.1 - 0.0
03/04:30pm 30.1 29.0 19.4 52 7.0 WNW 24 28 13 15 1012.9 - 0.0
03/04:00pm 31.3 29.5 17.9 44 8.6 NW 24 28 13 15 1013.0 - 0.0
03/03:30pm 31.4 29.4 16.4 40 9.4 WNW 22 30 12 16 1013.2 - 0.0
03/03:00pm 31.5 30.5 18.0 44 8.7 WNW 20 28 11 15 1013.5 1013.2 0.0
03/02:30pm 31.5 30.9 18.9 47 8.2 NW 20 26 11 14 1013.7 - 0.0
03/02:00pm 31.1 30.5 19.7 50 7.5 NW 22 28 12 15 1014.0 - 0.0
03/01:30pm 30.7 30.3 19.4 51 7.4 NW 20 28 11 15 1014.5 - 0.0
03/01:00pm 30.9 30.3 18.5 47 8.0 NNW 19 30 10 16 1014.9 - 0.0
03/12:30pm 31.5 32.0 19.3 48 8.0 WNW 15 24 8 13 1015.4 - 0.0
03/12:00pm 30.6 31.9 20.2 53 6.9 NW 13 19 7 10 1015.9 1015.6 0.0
03/11:30am 30.6 32.2 20.8 56 6.5 NNW 13 24 7 13 1016.4 - 0.0
03/11:00am 29.5 30.5 21.1 60 5.6 NW 17 24 9 13 1016.8 - 0.0
03/10:30am 30.4 29.9 16.9 44 8.5 NW 15 22 8 12 1017.1 - 0.0
03/10:00am 29.3 31.7 19.7 56 6.3 NNW 6 9 3 5 1017.2 - 0.0
03/09:30am 28.8 31.5 20.6 61 5.4 NNE 7 11 4 6 1017.2 - 0.0
03/09:19am 28.7 31.5 20.5 61 5.4 SSE 6 7 3 4 1017.2 - 0.0
03/09:00am 28.0 31.0 20.9 65 4.7 N 6 7 3 4 1017.0 1016.7 0.0
03/08:30am 26.6 29.8 22.3 77 2.9 NE 9 11 5 6 1016.7 - 0.0
03/08:00am 24.9 28.0 22.2 85 1.8 NNE 9 9 5 5 1016.9 - 0.0
03/07:30am 23.3 26.1 21.6 90 1.1 S 9 9 5 5 1016.5 - 0.0
03/07:00am 23.2 26.5 21.5 90 1.1 SSE 6 11 3 6 1016.2 - 0.0
03/06:30am 22.7 27.2 21.5 93 0.8 CALM 0 4 0 2 1015.7 - 0.0
03/06:00am 21.9 25.1 20.5 92 0.9 NNE 4 7 2 4 1015.0 1014.7 0.0
03/05:30am 21.8 24.3 20.2 91 1.0 NNW 7 11 4 6 1014.4 - 0.0
03/05:00am 22.8 26.3 21.1 90 1.1 N 4 7 2 4 1014.2 - 0.0
03/04:30am 22.4 25.3 21.0 92 0.9 N 7 9 4 5 1014.3 - 0.0
03/04:00am 22.5 24.7 20.5 88 1.3 N 9 9 5 5 1014.3 - 0.0
03/03:30am 22.7 25.0 20.7 88 1.3 N 9 11 5 6 1014.3 - 0.0
03/03:00am 23.1 25.5 20.8 87 1.5 NNE 9 9 5 5 1014.4 1014.1 0.0
03/02:30am 23.3 25.6 20.7 85 1.7 NNE 9 15 5 8 1014.5 - 0.0
03/02:00am 23.1 25.4 20.6 86 1.6 NNE 9 11 5 6 1014.7 - 0.0
03/01:30am 22.9 25.6 20.6 87 1.5 NNE 7 7 4 4 1014.8 - 0.0
03/01:00am 23.0 25.4 20.1 84 1.9 N 7 9 4 5 1014.9 - 0.0
03/12:30am 23.4 25.9 20.2 82 2.1 WNW 7 7 4 4 1015.0 - 0.0
03/12:00am 23.9 26.4 20.2 80 2.4 WNW 7 9 4 5 1015.1 1014.8 0.0
 
Date/Time
CST
Temp
°C
App
Temp
°C
Dew
Point
Rel
Hum
%
Delta-T
°C
Wind Press
QNH
hPa
Press
MSL
hPa
Rain
since 9 am
mm
Dir
 
Spd
km/h
Gust
km/h
Spd
kts
Gust
kts
02/11:30pm 24.2 26.4 19.7 76 2.9 W 7 9 4 5 1015.1 - 0.0
02/11:00pm 25.9 27.8 20.6 72 3.5 WSW 11 11 6 6 1015.0 - 0.0
02/10:30pm 25.8 27.0 19.9 70 3.8 W 13 13 7 7 1015.0 - 0.0
02/10:00pm 26.1 27.8 19.4 66 4.3 W 9 11 5 6 1014.7 - 0.0
02/09:30pm 26.3 27.7 19.5 66 4.4 WNW 11 11 6 6 1014.5 - 0.0
02/09:00pm 26.7 27.9 19.1 63 4.9 W 11 13 6 7 1014.2 1013.9 0.0
02/08:30pm 26.9 28.1 19.0 62 5.1 W 11 15 6 8 1013.9 - 0.0
02/08:00pm 27.1 28.2 20.4 66 4.4 WSW 15 19 8 10 1013.5 - 0.0
02/07:30pm 27.4 27.8 19.9 63 4.9 WSW 17 22 9 12 1013.2 - 0.0
02/07:00pm 27.8 27.4 18.1 55 6.2 WSW 17 20 9 11 1012.8 - 0.0
02/06:30pm 28.3 27.6 18.3 54 6.4 W 19 22 10 12 1012.6 - 0.0
02/06:00pm 29.0 27.5 17.8 50 7.1 W 22 28 12 15 1012.3 1012.0 0.0
02/05:30pm 29.7 27.2 16.2 44 8.4 WNW 24 30 13 16 1012.0 - 0.0
02/05:00pm 30.0 26.3 15.0 40 9.2 WNW 28 32 15 17 1011.8 - 0.0
02/04:30pm 30.0 26.8 16.2 43 8.6 WNW 28 33 15 18 1011.8 - 0.0
02/04:00pm 30.6 27.8 18.2 47 8.0 WNW 30 35 16 19 1011.8 - 0.0
02/03:30pm 30.6 27.3 17.0 44 8.6 WNW 30 35 16 19 1012.0 - 0.0
02/03:00pm 31.3 27.7 17.3 43 8.9 NW 32 37 17 20 1012.3 1012.0 0.0
02/02:30pm 31.0 28.5 18.1 46 8.3 NW 28 37 15 20 1012.8 - 0.0
02/02:00pm 31.2 28.9 18.5 46 8.2 NW 28 33 15 18 1013.4 - 0.0
02/01:30pm 30.7 29.3 19.6 51 7.3 NW 26 32 14 17 1014.0 - 0.0
02/01:00pm 31.3 30.8 19.0 48 8.0 NW 20 30 11 16 1014.4 - 0.0
02/12:30pm 31.2 30.0 16.2 40 9.4 WNW 17 26 9 14 1015.0 - 0.0
02/12:00pm 30.8 29.4 16.6 42 8.9 NW 19 24 10 13 1015.3 1015.0 0.0
02/11:30am 31.0 30.7 18.3 46 8.2 W 17 22 9 12 1015.9 - 0.0
02/11:00am 29.7 30.1 19.1 53 6.9 WNW 15 20 8 11 1016.4 - 0.0
02/10:30am 29.4 30.7 19.4 55 6.5 WSW 11 17 6 9 1016.7 - 0.0
02/10:00am 28.7 30.4 19.3 56 6.1 WNW 9 15 5 8 1017.0 - 0.0
02/09:30am 28.0 30.4 20.1 62 5.2 S 7 11 4 6 1016.8 - 0.0
02/09:00am 27.4 30.4 20.9 67 4.3 WSW 6 11 3 6 1016.7 1016.4 0.0
02/08:30am 26.2 30.3 22.3 79 2.6 S 4 9 2 5 1016.4 - 0.0
02/08:00am 25.2 28.7 22.2 83 2.0 E 7 9 4 5 1016.1 - 0.0
02/07:30am 23.0 26.1 21.5 91 1.0 ESE 7 7 4 4 1015.7 - 0.0
02/07:00am 21.4 24.1 20.2 93 0.8 SE 6 6 3 3 1015.3 - 0.0
02/06:30am 22.1 25.1 20.9 93 0.8 SE 6 7 3 4 1014.6 - 0.0
02/06:00am 22.2 25.0 20.8 92 0.9 SSE 7 7 4 4 1014.3 1014.0 0.0
02/05:30am 22.9 25.9 21.2 90 1.1 SE 7 9 4 5 1014.0 - 0.0
02/05:00am 22.4 25.1 20.7 90 1.1 SSE 7 9 4 5 1014.0 - 0.0
02/04:30am 23.6 26.3 21.3 87 1.5 S 9 11 5 6 1013.8 - 0.0
02/04:00am 23.7 26.4 21.4 87 1.5 SSW 9 11 5 6 1014.0 - 0.0
02/03:30am 22.9 26.4 21.1 89 1.2 WSW 4 7 2 4 1013.9 - 0.0
02/03:00am 22.8 27.1 21.1 90 1.1 CALM 0 0 0 0 1013.9 1013.6 0.0
02/02:30am 22.9 25.7 20.9 88 1.3 W 7 7 4 4 1014.0 - 0.0
02/02:00am 23.2 26.4 21.2 88 1.3 W 6 7 3 4 1014.1 - 0.0
02/01:30am 23.8 27.4 21.2 85 1.7 WNW 4 6 2 3 1014.2 - 0.0
02/01:00am 25.0 27.9 21.8 82 2.1 W 9 11 5 6 1014.3 - 0.0
02/12:30am 25.2 28.1 21.7 81 2.3 W 9 13 5 7 1014.5 - 0.0
02/12:00am 25.5 28.2 21.3 77 2.8 WSW 9 9 5 5 1014.7 1014.4 0.0
 
Date/Time
CST
Temp
°C
App
Temp
°C
Dew
Point
Rel
Hum
%
Delta-T
°C
Wind Press
QNH
hPa
Press
MSL
hPa
Rain
since 9 am
mm
Dir
 
Spd
km/h
Gust
km/h
Spd
kts
Gust
kts
01/11:30pm 25.8 28.1 21.3 76 3.0 WSW 11 15 6 8 1014.4 - 0.0
01/11:00pm 25.8 27.7 21.3 76 3.0 WSW 13 17 7 9 1014.4 - 0.0
01/10:30pm 26.0 27.9 21.3 75 3.1 WSW 13 15 7 8 1014.2 - 0.0
01/10:00pm 26.1 27.7 21.4 75 3.1 WSW 15 22 8 12 1014.0 - 0.0
01/09:30pm 26.2 27.8 21.5 75 3.1 WSW 15 19 8 10 1014.0 - 0.0
01/09:00pm 26.3 27.9 21.5 75 3.2 WSW 15 19 8 10 1013.8 1013.5 0.0
01/08:30pm 26.5 27.3 21.4 73 3.4 WSW 19 24 10 13 1013.4 - 0.0
01/08:00pm 26.6 27.3 21.5 73 3.4 WSW 20 26 11 14 1013.0 - 0.0
01/07:30pm 26.8 27.0 21.4 72 3.6 W 22 30 12 16 1012.5 - 0.0
01/07:00pm 27.4 28.0 20.2 65 4.7 W 17 24 9 13 1012.0 - 0.0
01/06:30pm 28.1 27.8 19.1 58 5.8 WNW 19 24 10 13 1011.9 - 0.0
01/06:00pm 28.9 27.9 18.8 54 6.5 WNW 22 28 12 15 1011.8 1011.5 0.0
01/05:30pm 29.8 27.1 15.5 42 8.8 WNW 24 30 13 16 1011.6 - 0.0

Other Formats:

Comma delimited format used in spreadsheet applications
http://www.bom.gov.au/fwo/IDD60801/IDD60801.94120.axf

JavaScript Object Notation format (JSON) in row-major order
http://www.bom.gov.au/fwo/IDD60801/IDD60801.94120.json